Time;durP1;ratioP1;P1;durP2;ratioP2;P2;SDS_P1;SDS_P2;PMS_P1;PMS_P2;Temp;Humidity;BMP_temperature;BMP_pressure;BME280_temperature;BME280_humidity;BME280_pressure;Samples;Min_cycle;Max_cycle;Signal;HPM_P1;HPM_P2
2023/08/16 00:00:57;;;;;;;0.30;0.30;;;13.70;99.90;;;;;;5007393;28;20034;-75
2023/08/16 00:03:23;;;;;;;0.32;0.32;;;13.70;99.90;;;;;;5006845;28;20075;-75
2023/08/16 00:05:49;;;;;;;0.30;0.30;;;13.70;99.90;;;;;;5007212;28;20042;-75
2023/08/16 00:08:14;;;;;;;0.40;0.40;;;13.70;99.90;;;;;;5025708;28;20478;-75
2023/08/16 00:10:40;;;;;;;0.47;0.43;;;13.70;99.90;;;;;;5008180;28;20038;-75
2023/08/16 00:13:06;;;;;;;0.20;0.20;;;13.60;99.90;;;;;;5004850;28;20037;-75
2023/08/16 00:15:32;;;;;;;0.35;0.35;;;13.60;99.90;;;;;;5022843;28;20342;-75
2023/08/16 00:17:57;;;;;;;0.30;0.30;;;13.60;99.90;;;;;;5007068;28;20050;-75
2023/08/16 00:20:27;;;;;;;0.30;0.30;;;13.50;99.90;;;;;;5003531;28;20045;-75
2023/08/16 00:22:53;;;;;;;0.30;0.30;;;13.50;99.90;;;;;;5004952;28;20522;-74
2023/08/16 00:25:20;;;;;;;0.52;0.52;;;13.50;99.90;;;;;;5003555;28;20666;-75
2023/08/16 00:27:46;;;;;;;0.30;0.30;;;13.50;99.90;;;;;;5006511;28;20042;-75
2023/08/16 00:30:12;;;;;;;0.35;0.35;;;13.50;99.90;;;;;;5003840;28;20120;-75
2023/08/16 00:32:38;;;;;;;0.50;0.50;;;13.40;99.90;;;;;;5010466;28;20037;-75
2023/08/16 00:35:04;;;;;;;0.30;0.30;;;13.40;99.90;;;;;;5014384;28;20048;-75
2023/08/16 00:37:30;;;;;;;0.30;0.30;;;13.40;99.90;;;;;;5000766;28;20026;-75
2023/08/16 00:39:56;;;;;;;0.30;0.30;;;13.40;99.90;;;;;;4990474;28;20088;-75
2023/08/16 00:42:22;;;;;;;0.50;0.50;;;13.40;99.90;;;;;;5020033;28;20034;-75
2023/08/16 00:44:48;;;;;;;0.20;0.20;;;13.30;99.90;;;;;;5000730;28;20563;-74
2023/08/16 00:47:14;;;;;;;0.38;0.38;;;13.30;99.90;;;;;;5006625;28;20041;-75
2023/08/16 00:49:41;;;;;;;0.38;0.38;;;13.30;99.90;;;;;;5013555;28;20052;-75
2023/08/16 00:52:08;;;;;;;0.35;0.35;;;13.30;99.90;;;;;;5012347;28;20057;-74
2023/08/16 00:54:34;;;;;;;0.30;0.30;;;13.30;99.90;;;;;;4985369;28;20034;-75
2023/08/16 00:57:00;;;;;;;0.30;0.30;;;13.20;99.90;;;;;;5011559;28;20970;-75
2023/08/16 00:59:27;;;;;;;0.30;0.30;;;13.20;99.90;;;;;;5013941;28;20045;-75
2023/08/16 01:01:53;;;;;;;0.40;0.40;;;13.20;99.90;;;;;;5007300;28;20149;-75
2023/08/16 01:04:19;;;;;;;0.20;0.20;;;13.20;99.90;;;;;;5009030;28;20038;-75
2023/08/16 01:06:45;;;;;;;0.30;0.30;;;13.20;99.90;;;;;;5009515;28;20046;-75
2023/08/16 01:09:11;;;;;;;0.30;0.30;;;13.20;99.90;;;;;;5003743;28;20042;-75
2023/08/16 01:11:45;;;;;;;0.30;0.30;;;13.20;99.90;;;;;;5009827;28;20080;-75
2023/08/16 01:14:20;;;;;;;0.40;0.40;;;13.10;99.90;;;;;;5009492;28;20524;-75
2023/08/16 01:16:47;;;;;;;0.35;0.35;;;13.00;99.90;;;;;;4990396;28;20813;-75
2023/08/16 01:19:20;;;;;;;0.30;0.30;;;12.90;99.90;;;;;;5021951;28;20049;-75
2023/08/16 01:22:00;;;;;;;0.30;0.30;;;12.80;99.90;;;;;;4989348;28;20038;-75
2023/08/16 01:24:44;;;;;;;0.20;0.20;;;12.70;99.90;;;;;;4994045;28;20042;-75
2023/08/16 01:27:11;;;;;;;0.47;0.47;;;12.70;99.90;;;;;;5019982;28;20034;-75
2023/08/16 01:29:40;;;;;;;0.50;0.50;;;12.70;99.90;;;;;;5018354;28;20064;-75
2023/08/16 01:32:06;;;;;;;0.30;0.30;;;12.70;99.90;;;;;;4991164;28;20287;-75
2023/08/16 01:34:31;;;;;;;0.30;0.30;;;12.70;99.90;;;;;;5023211;28;20513;-75
2023/08/16 01:36:57;;;;;;;0.30;0.30;;;12.60;99.90;;;;;;4995604;28;20042;-75
2023/08/16 01:39:23;;;;;;;0.20;0.20;;;12.60;99.90;;;;;;5010512;28;20038;-75
2023/08/16 01:41:56;;;;;;;0.30;0.30;;;12.60;99.90;;;;;;5007815;28;20116;-75
2023/08/16 01:44:23;;;;;;;0.40;0.40;;;12.60;99.90;;;;;;5003072;28;20041;-75
2023/08/16 01:46:50;;;;;;;0.20;0.20;;;12.60;99.90;;;;;;5010819;28;20132;-75
2023/08/16 01:49:16;;;;;;;0.30;0.30;;;12.60;99.90;;;;;;5015589;28;20037;-75
2023/08/16 01:51:42;;;;;;;0.45;0.45;;;12.60;99.90;;;;;;5005757;28;20038;-75
2023/08/16 01:54:11;;;;;;;0.30;0.30;;;12.60;99.90;;;;;;5015584;28;20038;-75
2023/08/16 01:56:36;;;;;;;0.40;0.40;;;12.60;99.90;;;;;;5008847;28;20038;-75
2023/08/16 01:59:02;;;;;;;0.30;0.30;;;12.60;99.90;;;;;;4992836;28;20038;-75
2023/08/16 02:01:28;;;;;;;0.20;0.20;;;12.60;99.90;;;;;;5011926;28;20049;-75
2023/08/16 02:03:53;;;;;;;0.30;0.30;;;12.50;99.90;;;;;;5027397;28;20395;-75
2023/08/16 02:06:19;;;;;;;0.45;0.45;;;12.50;99.90;;;;;;5025468;28;20145;-75
2023/08/16 02:08:45;;;;;;;0.40;0.40;;;12.50;99.90;;;;;;5009151;28;20038;-75
2023/08/16 02:11:10;;;;;;;0.25;0.25;;;12.50;99.90;;;;;;5020414;28;20041;-75
2023/08/16 02:13:36;;;;;;;0.35;0.35;;;12.50;99.90;;;;;;5009520;28;20692;-75
2023/08/16 02:16:03;;;;;;;0.55;0.55;;;12.50;99.90;;;;;;5026056;28;20046;-74
2023/08/16 02:18:30;;;;;;;0.40;0.40;;;12.40;99.90;;;;;;5009427;28;20056;-75
2023/08/16 02:20:56;;;;;;;0.30;0.30;;;12.40;99.90;;;;;;5008398;28;20037;-75
2023/08/16 02:23:21;;;;;;;0.30;0.30;;;12.40;99.90;;;;;;4988163;28;20125;-75
2023/08/16 02:25:47;;;;;;;0.25;0.25;;;12.40;99.90;;;;;;5009092;28;20112;-75
2023/08/16 02:28:13;;;;;;;0.30;0.30;;;12.40;99.90;;;;;;5009016;28;20038;-75
2023/08/16 02:30:38;;;;;;;1.23;0.57;;;12.40;99.90;;;;;;5002464;28;20041;-75
2023/08/16 02:33:04;;;;;;;0.30;0.30;;;12.30;99.90;;;;;;4992453;28;20042;-75
2023/08/16 02:35:31;;;;;;;0.40;0.40;;;12.30;99.90;;;;;;5004986;28;20676;-75
2023/08/16 02:37:57;;;;;;;0.30;0.30;;;12.30;99.90;;;;;;5008861;28;20042;-75
2023/08/16 02:40:22;;;;;;;0.30;0.30;;;12.30;99.90;;;;;;4992074;28;20044;-75
2023/08/16 02:42:50;;;;;;;0.40;0.40;;;12.30;99.90;;;;;;5009206;28;20034;-74
2023/08/16 02:45:16;;;;;;;0.20;0.20;;;12.20;99.90;;;;;;5014205;28;20046;-74
2023/08/16 02:47:42;;;;;;;0.40;0.40;;;12.20;99.90;;;;;;5004806;28;20664;-75
2023/08/16 02:50:08;;;;;;;0.30;0.30;;;12.20;99.90;;;;;;5009483;28;20095;-75
2023/08/16 02:52:34;;;;;;;0.40;0.40;;;12.20;99.90;;;;;;4991456;28;20037;-75
2023/08/16 02:54:59;;;;;;;0.20;0.20;;;12.20;99.90;;;;;;5024901;28;20030;-75
2023/08/16 02:57:25;;;;;;;0.50;0.50;;;12.20;99.90;;;;;;5007964;28;20091;-75
2023/08/16 02:59:51;;;;;;;0.32;0.32;;;12.20;99.90;;;;;;4996798;28;20036;-75
2023/08/16 03:02:17;;;;;;;0.30;0.30;;;12.20;99.90;;;;;;5008502;28;20041;-75
2023/08/16 03:04:43;;;;;;;0.30;0.30;;;12.10;99.90;;;;;;5003476;28;20796;-75
2023/08/16 03:07:09;;;;;;;0.20;0.20;;;12.10;99.90;;;;;;5003546;28;20564;-75
2023/08/16 03:09:36;;;;;;;0.30;0.30;;;12.20;99.90;;;;;;5006271;28;20046;-75
2023/08/16 03:12:02;;;;;;;0.28;0.28;;;12.10;99.90;;;;;;5008017;28;20176;-75
2023/08/16 03:14:28;;;;;;;0.20;0.20;;;12.20;99.90;;;;;;4991311;28;20046;-75
2023/08/16 03:16:55;;;;;;;0.30;0.30;;;12.20;99.90;;;;;;5015813;28;20406;-75
2023/08/16 03:19:21;;;;;;;0.30;0.30;;;12.20;99.90;;;;;;5020530;28;20378;-75
2023/08/16 03:21:46;;;;;;;0.20;0.20;;;12.20;99.90;;;;;;5002388;28;20645;-75
2023/08/16 03:24:12;;;;;;;0.40;0.40;;;12.20;99.90;;;;;;5001986;28;20057;-75
2023/08/16 03:26:38;;;;;;;0.30;0.30;;;12.20;99.90;;;;;;5017175;28;20092;-75
2023/08/16 03:29:04;;;;;;;0.30;0.30;;;12.20;99.90;;;;;;5008309;28;20077;-75
2023/08/16 03:31:30;;;;;;;0.30;0.30;;;12.20;99.90;;;;;;5020864;28;20458;-75
2023/08/16 03:33:55;;;;;;;0.40;0.40;;;12.20;99.90;;;;;;5007745;28;20073;-74
2023/08/16 03:36:21;;;;;;;0.30;0.30;;;12.20;99.90;;;;;;5016368;28;20128;-74
2023/08/16 03:38:47;;;;;;;0.35;0.35;;;12.20;99.90;;;;;;4992849;28;20045;-75
2023/08/16 03:41:13;;;;;;;0.45;0.45;;;12.20;99.90;;;;;;4987592;28;20069;-74
2023/08/16 03:43:39;;;;;;;0.50;0.50;;;12.30;99.90;;;;;;5021205;28;20188;-74
2023/08/16 03:46:05;;;;;;;0.30;0.30;;;12.30;99.90;;;;;;4991337;28;20752;-75
2023/08/16 03:48:31;;;;;;;0.40;0.40;;;12.30;99.90;;;;;;4990723;28;20096;-74
2023/08/16 03:50:57;;;;;;;0.70;0.70;;;12.30;99.90;;;;;;4991017;28;20038;-74
2023/08/16 03:53:23;;;;;;;0.40;0.40;;;12.30;99.90;;;;;;4991210;28;20092;-74
2023/08/16 03:55:55;;;;;;;0.30;0.30;;;12.30;99.90;;;;;;5007999;28;20048;-74
2023/08/16 03:58:20;;;;;;;0.30;0.30;;;12.30;99.90;;;;;;4999500;28;20041;-74
2023/08/16 04:00:53;;;;;;;0.40;0.40;;;12.30;99.90;;;;;;4993549;28;20104;-74
2023/08/16 04:03:20;;;;;;;0.30;0.30;;;12.30;99.90;;;;;;5018261;28;20037;-74
2023/08/16 04:05:46;;;;;;;0.40;0.40;;;12.30;99.90;;;;;;5016015;28;20091;-73
2023/08/16 04:08:12;;;;;;;0.30;0.30;;;12.30;99.90;;;;;;5015932;28;20045;-74
2023/08/16 04:10:38;;;;;;;0.32;0.32;;;12.30;99.90;;;;;;4990874;28;20079;-74
2023/08/16 04:13:04;;;;;;;0.30;0.30;;;12.30;99.90;;;;;;4989958;28;20116;-75
2023/08/16 04:15:30;;;;;;;0.50;0.50;;;12.30;99.90;;;;;;4989334;28;22721;-74
2023/08/16 04:17:56;;;;;;;0.40;0.40;;;12.30;99.90;;;;;;5002997;28;20060;-74
2023/08/16 04:20:22;;;;;;;1.85;0.85;;;12.30;99.90;;;;;;5013967;28;20038;-75
2023/08/16 04:22:49;;;;;;;0.30;0.30;;;12.30;99.90;;;;;;5009552;28;20045;-75
2023/08/16 04:25:14;;;;;;;0.40;0.40;;;12.30;99.90;;;;;;5016903;28;20038;-74
2023/08/16 04:27:41;;;;;;;0.20;0.20;;;12.30;99.90;;;;;;4990411;28;20518;-74
2023/08/16 04:30:08;;;;;;;0.32;0.32;;;12.30;99.90;;;;;;4992736;28;20037;-74
2023/08/16 04:32:33;;;;;;;0.30;0.30;;;12.30;99.90;;;;;;5004699;28;20038;-74
2023/08/16 04:34:59;;;;;;;0.40;0.40;;;12.30;99.90;;;;;;4988259;28;20045;-75
2023/08/16 04:37:24;;;;;;;0.30;0.30;;;12.40;99.90;;;;;;5006285;28;20405;-75
2023/08/16 04:39:50;;;;;;;0.40;0.40;;;12.40;99.90;;;;;;4990935;28;20057;-75
2023/08/16 04:42:16;;;;;;;0.35;0.35;;;12.50;99.90;;;;;;5000078;28;20493;-74
2023/08/16 04:44:42;;;;;;;0.20;0.20;;;12.50;99.90;;;;;;5014362;28;20465;-75
2023/08/16 04:47:08;;;;;;;0.30;0.30;;;12.50;99.90;;;;;;5009314;28;20034;-75
2023/08/16 04:49:34;;;;;;;0.43;0.43;;;12.60;99.90;;;;;;5005201;28;20049;-74
2023/08/16 04:51:59;;;;;;;0.30;0.30;;;12.60;99.90;;;;;;5022976;28;20512;-75
2023/08/16 04:54:25;;;;;;;0.40;0.40;;;12.70;99.90;;;;;;5012462;28;20037;-75
2023/08/16 04:56:51;;;;;;;0.30;0.30;;;12.80;99.90;;;;;;4989281;28;20049;-74
2023/08/16 04:59:17;;;;;;;0.43;0.43;;;12.80;99.90;;;;;;5002713;28;20042;-74
2023/08/16 05:01:43;;;;;;;0.50;0.50;;;12.90;99.90;;;;;;5025623;28;20541;-74
2023/08/16 05:04:09;;;;;;;0.20;0.20;;;13.00;99.90;;;;;;5005904;28;20042;-74
2023/08/16 05:06:35;;;;;;;0.63;0.63;;;13.00;99.90;;;;;;5008642;28;20486;-74
2023/08/16 05:09:05;;;;;;;0.30;0.30;;;13.10;99.90;;;;;;5021671;28;20053;-74
2023/08/16 05:11:31;;;;;;;0.93;0.90;;;13.10;99.90;;;;;;4992292;28;20052;-74
2023/08/16 05:13:57;;;;;;;0.30;0.30;;;13.10;99.90;;;;;;5012656;28;20038;-74
2023/08/16 05:16:22;;;;;;;0.40;0.40;;;13.10;99.90;;;;;;5005518;28;20085;-74
2023/08/16 05:18:48;;;;;;;0.50;0.50;;;13.20;99.90;;;;;;5015923;28;20088;-74
2023/08/16 05:21:14;;;;;;;0.50;0.50;;;13.20;99.90;;;;;;5007787;28;20045;-74
2023/08/16 05:23:40;;;;;;;0.30;0.30;;;13.20;99.90;;;;;;5004912;28;20070;-74
2023/08/16 05:26:06;;;;;;;0.20;0.20;;;13.20;99.90;;;;;;5003969;28;20065;-74
2023/08/16 05:28:31;;;;;;;0.22;0.22;;;13.30;99.90;;;;;;5013811;28;20042;-74
2023/08/16 05:31:09;;;;;;;0.30;0.30;;;13.40;99.90;;;;;;5006373;28;20045;-74
2023/08/16 05:33:35;;;;;;;0.30;0.30;;;13.50;99.90;;;;;;5005476;28;20045;-74
2023/08/16 05:36:01;;;;;;;0.30;0.30;;;13.50;99.90;;;;;;5007346;28;20138;-74
2023/08/16 05:38:27;;;;;;;0.28;0.28;;;13.60;99.90;;;;;;5015054;28;20129;-75
2023/08/16 05:40:53;;;;;;;0.30;0.30;;;13.70;99.90;;;;;;5007867;28;20030;-74
2023/08/16 05:43:19;;;;;;;0.35;0.35;;;13.70;99.90;;;;;;4994344;28;20488;-74
2023/08/16 05:45:45;;;;;;;0.88;0.88;;;13.80;99.90;;;;;;5007543;28;20088;-74
2023/08/16 05:48:10;;;;;;;0.52;0.52;;;13.90;99.90;;;;;;5019608;28;20057;-74
2023/08/16 05:50:36;;;;;;;0.30;0.30;;;14.00;99.90;;;;;;5013037;28;20665;-74
2023/08/16 05:53:03;;;;;;;0.40;0.40;;;14.00;99.90;;;;;;5020497;28;20398;-74
2023/08/16 05:55:29;;;;;;;0.65;0.65;;;14.00;99.90;;;;;;5008880;28;20042;-74
2023/08/16 05:57:54;;;;;;;0.40;0.40;;;14.00;99.90;;;;;;5012862;28;20065;-74
2023/08/16 06:00:20;;;;;;;0.40;0.40;;;14.00;99.90;;;;;;5004667;28;20461;-74
2023/08/16 06:02:46;;;;;;;1.02;0.93;;;14.00;99.90;;;;;;5009228;28;20405;-74
2023/08/16 06:05:11;;;;;;;0.30;0.30;;;14.00;99.90;;;;;;5013301;28;20033;-74
2023/08/16 06:07:37;;;;;;;0.40;0.40;;;14.00;99.90;;;;;;4996436;28;20562;-73
2023/08/16 06:10:04;;;;;;;0.40;0.40;;;14.10;99.90;;;;;;5011684;28;20083;-75
2023/08/16 06:12:30;;;;;;;0.40;0.40;;;14.10;99.90;;;;;;5013740;28;20090;-74
2023/08/16 06:14:56;;;;;;;0.40;0.40;;;14.20;99.90;;;;;;5005915;28;20073;-74
2023/08/16 06:17:22;;;;;;;0.40;0.40;;;14.30;99.90;;;;;;4992236;28;20457;-74
2023/08/16 06:19:47;;;;;;;0.35;0.35;;;14.30;99.90;;;;;;5008377;28;20423;-74
2023/08/16 06:22:13;;;;;;;0.40;0.40;;;14.40;99.90;;;;;;5007224;28;20064;-74
2023/08/16 06:24:39;;;;;;;0.25;0.25;;;14.50;99.90;;;;;;5008585;28;20041;-74
2023/08/16 06:27:08;;;;;;;0.63;0.63;;;14.60;99.90;;;;;;5005362;28;20037;-74
2023/08/16 06:29:35;;;;;;;0.32;0.32;;;14.70;99.90;;;;;;5007376;28;20061;-74
2023/08/16 06:32:01;;;;;;;0.43;0.43;;;14.80;99.90;;;;;;5005672;28;20191;-74
2023/08/16 06:34:27;;;;;;;0.73;0.50;;;14.90;99.90;;;;;;5011564;28;20168;-74
2023/08/16 06:36:53;;;;;;;0.60;0.60;;;15.00;99.90;;;;;;5005784;28;20057;-74
2023/08/16 06:39:18;;;;;;;0.30;0.30;;;15.10;99.90;;;;;;5012813;28;20037;-74
2023/08/16 06:41:45;;;;;;;0.40;0.40;;;15.20;99.90;;;;;;5006062;28;20037;-71
2023/08/16 06:44:11;;;;;;;0.22;0.22;;;15.20;99.90;;;;;;5008161;28;20040;-71
2023/08/16 06:46:36;;;;;;;0.38;0.38;;;15.30;99.90;;;;;;5014353;28;20042;-71
2023/08/16 06:49:03;;;;;;;0.45;0.45;;;15.30;99.90;;;;;;5018138;28;20562;-70
2023/08/16 06:51:29;;;;;;;0.95;0.47;;;15.40;99.90;;;;;;5009039;28;20413;-73
2023/08/16 06:53:55;;;;;;;0.68;0.68;;;15.50;99.90;;;;;;5017300;28;20049;-75
2023/08/16 06:56:20;;;;;;;0.40;0.40;;;15.60;99.90;;;;;;5008703;28;20112;-72
2023/08/16 06:58:46;;;;;;;0.38;0.38;;;15.60;99.90;;;;;;5014063;28;20136;-71
2023/08/16 07:01:12;;;;;;;0.20;0.20;;;15.70;99.90;;;;;;5006282;28;20504;-71
2023/08/16 07:03:38;;;;;;;0.30;0.30;;;15.80;99.90;;;;;;5009446;28;20068;-71
2023/08/16 07:06:03;;;;;;;0.30;0.30;;;16.00;99.90;;;;;;5014984;28;20488;-71
2023/08/16 07:08:30;;;;;;;0.40;0.40;;;16.10;99.90;;;;;;4999554;28;20769;-72
2023/08/16 07:10:55;;;;;;;0.60;0.50;;;16.20;99.90;;;;;;5015426;28;20129;-71
2023/08/16 07:13:21;;;;;;;1.20;0.63;;;16.40;99.90;;;;;;5024942;28;20108;-72
2023/08/16 07:15:47;;;;;;;0.40;0.40;;;16.50;99.90;;;;;;4996096;28;20045;-71
2023/08/16 07:18:12;;;;;;;0.45;0.45;;;16.60;99.90;;;;;;5016279;28;20089;-71
2023/08/16 07:20:39;;;;;;;0.30;0.30;;;16.70;99.90;;;;;;5005972;28;20096;-72
2023/08/16 07:23:06;;;;;;;0.35;0.35;;;16.80;99.90;;;;;;5014770;28;20046;-72
2023/08/16 07:25:33;;;;;;;0.82;0.68;;;16.90;99.90;;;;;;5004834;28;20549;-72
2023/08/16 07:27:58;;;;;;;0.40;0.40;;;17.10;99.90;;;;;;5005197;28;20029;-72
2023/08/16 07:30:24;;;;;;;0.28;0.28;;;17.30;99.90;;;;;;5007219;28;20034;-72
2023/08/16 07:32:50;;;;;;;0.65;0.65;;;17.50;99.90;;;;;;5011329;28;20042;-72
2023/08/16 07:35:16;;;;;;;0.50;0.50;;;17.70;99.90;;;;;;5013173;28;20041;-73
2023/08/16 07:37:43;;;;;;;0.40;0.40;;;17.90;99.90;;;;;;5006096;28;20042;-73
2023/08/16 07:40:10;;;;;;;0.28;0.28;;;18.00;99.90;;;;;;5008451;28;20038;-73
2023/08/16 07:42:36;;;;;;;0.40;0.40;;;18.10;99.90;;;;;;5010943;28;20050;-72
2023/08/16 07:45:03;;;;;;;0.73;0.73;;;18.20;99.90;;;;;;5014806;28;20717;-72
2023/08/16 07:47:28;;;;;;;0.50;0.50;;;18.20;99.90;;;;;;5005345;28;20049;-73
2023/08/16 07:49:54;;;;;;;0.52;0.52;;;18.40;99.90;;;;;;5012078;28;20107;-73
2023/08/16 07:52:21;;;;;;;0.63;0.60;;;18.60;99.90;;;;;;5011344;28;20047;-72
2023/08/16 07:54:46;;;;;;;0.45;0.45;;;18.70;99.90;;;;;;5004312;28;20096;-72
2023/08/16 07:57:12;;;;;;;0.45;0.45;;;18.90;99.90;;;;;;5013441;28;20041;-73
2023/08/16 07:59:41;;;;;;;0.68;0.68;;;19.10;99.90;;;;;;5005066;28;20048;-72
2023/08/16 08:02:07;;;;;;;0.40;0.40;;;19.30;99.90;;;;;;5005950;28;20037;-72
2023/08/16 08:04:33;;;;;;;0.20;0.20;;;19.40;99.90;;;;;;5005394;28;20126;-72
2023/08/16 08:07:00;;;;;;;0.43;0.40;;;19.50;99.90;;;;;;5012089;28;20073;-73
2023/08/16 08:09:26;;;;;;;0.60;0.60;;;19.70;99.90;;;;;;5025381;28;20042;-73
2023/08/16 08:11:51;;;;;;;0.35;0.35;;;19.80;99.90;;;;;;5006975;28;20044;-72
2023/08/16 08:14:17;;;;;;;0.40;0.40;;;19.90;99.90;;;;;;5001298;28;20145;-72
2023/08/16 08:16:44;;;;;;;0.63;0.63;;;20.10;99.90;;;;;;5012400;28;20151;-72
2023/08/16 08:19:09;;;;;;;0.60;0.60;;;20.20;99.90;;;;;;5011427;28;20077;-73
2023/08/16 08:21:35;;;;;;;0.45;0.45;;;20.30;99.90;;;;;;5006279;28;20069;-72
2023/08/16 08:24:01;;;;;;;0.93;0.93;;;20.50;99.90;;;;;;5014249;28;20100;-72
2023/08/16 08:26:26;;;;;;;0.35;0.35;;;20.60;99.90;;;;;;5006712;28;20485;-73
2023/08/16 08:28:52;;;;;;;0.30;0.30;;;20.90;99.90;;;;;;5013216;28;20064;-73
2023/08/16 08:31:18;;;;;;;0.50;0.50;;;21.10;99.90;;;;;;4993618;28;20099;-72
2023/08/16 08:33:46;;;;;;;0.55;0.55;;;21.30;99.90;;;;;;5003507;28;20052;-72
2023/08/16 08:36:12;;;;;;;0.82;0.82;;;21.40;99.90;;;;;;5011917;28;20081;-73
2023/08/16 08:38:38;;;;;;;0.65;0.65;;;21.50;99.90;;;;;;5008274;28;20080;-72
2023/08/16 08:41:06;;;;;;;0.50;0.50;;;21.70;99.90;;;;;;5017692;28;20041;-75
2023/08/16 08:43:40;;;;;;;0.45;0.45;;;21.90;99.90;;;;;;4996036;28;20492;-74
2023/08/16 08:46:06;;;;;;;0.40;0.40;;;22.20;99.90;;;;;;4993195;28;20033;-73
2023/08/16 08:48:32;;;;;;;0.65;0.65;;;22.40;99.90;;;;;;5010526;28;20026;-74
2023/08/16 08:51:00;;;;;;;0.52;0.52;;;22.50;99.90;;;;;;4987501;28;20543;-73
2023/08/16 08:53:27;;;;;;;0.57;0.57;;;22.40;99.90;;;;;;5004532;28;20547;-74
2023/08/16 08:55:55;;;;;;;0.45;0.45;;;22.30;99.90;;;;;;5005342;28;20038;-74
2023/08/16 08:58:22;;;;;;;0.75;0.75;;;22.50;99.90;;;;;;5011972;28;20037;-74
2023/08/16 09:00:49;;;;;;;0.50;0.50;;;22.40;99.90;;;;;;5004674;28;20573;-74
2023/08/16 09:03:17;;;;;;;0.55;0.55;;;22.40;99.90;;;;;;5004462;28;20050;-74
2023/08/16 09:05:50;;;;;;;1.13;0.90;;;22.50;99.90;;;;;;5017910;28;20091;-74
2023/08/16 09:08:16;;;;;;;0.30;0.30;;;22.60;99.90;;;;;;5005232;28;20042;-74
2023/08/16 09:10:43;;;;;;;0.40;0.40;;;22.50;99.90;;;;;;5003970;28;20038;-74
2023/08/16 09:13:12;;;;;;;0.65;0.65;;;22.50;99.90;;;;;;5004861;28;20042;-74
2023/08/16 09:15:38;;;;;;;0.50;0.50;;;22.40;99.90;;;;;;5004710;28;20041;-76
2023/08/16 09:18:36;;;;;;;0.40;0.40;;;22.40;99.90;;;;;;5070765;27;1257934;-74
2023/08/16 09:21:02;;;;;;;0.85;0.85;;;22.20;99.90;;;;;;5084041;28;20063;-74
2023/08/16 09:23:28;;;;;;;0.30;0.30;;;22.20;99.90;;;;;;5067400;28;20047;-75
2023/08/16 09:25:53;;;;;;;0.38;0.38;;;22.30;99.90;;;;;;5062834;28;20042;-74
2023/08/16 09:28:20;;;;;;;0.40;0.40;;;22.40;99.90;;;;;;5065820;28;20127;-75
2023/08/16 09:30:46;;;;;;;0.50;0.50;;;22.50;99.90;;;;;;5049479;28;20089;-75
2023/08/16 09:33:17;;;;;;;0.30;0.30;;;22.70;99.90;;;;;;5065937;28;20040;-75
2023/08/16 09:35:51;;;;;;;0.60;0.60;;;22.70;99.90;;;;;;5066404;28;20062;-74
2023/08/16 09:38:20;;;;;;;12.63;0.85;;;22.70;99.90;;;;;;5059663;28;20093;-75
2023/08/16 09:40:51;;;;;;;0.47;0.47;;;22.80;99.90;;;;;;5048848;28;20407;-74
2023/08/16 09:43:20;;;;;;;0.40;0.40;;;23.00;99.90;;;;;;5063079;28;20101;-74
2023/08/16 09:45:54;;;;;;;0.55;0.55;;;23.20;99.90;;;;;;5061131;28;20040;-74
2023/08/16 09:48:21;;;;;;;0.70;0.70;;;23.40;99.90;;;;;;5049733;28;20578;-74
2023/08/16 09:50:47;;;;;;;0.57;0.57;;;23.50;99.90;;;;;;5059716;28;20446;-74
2023/08/16 09:53:13;;;;;;;0.70;0.70;;;23.60;99.90;;;;;;5064920;28;20044;-76
2023/08/16 09:55:41;;;;;;;0.28;0.28;;;23.80;99.90;;;;;;5066051;28;20508;-76
2023/08/16 09:58:11;;;;;;;0.30;0.30;;;24.10;99.90;;;;;;5048596;28;20037;-72
2023/08/16 10:00:37;;;;;;;1.05;1.05;;;24.20;99.90;;;;;;5065694;28;20470;-70
2023/08/16 10:03:04;;;;;;;0.35;0.35;;;24.20;99.90;;;;;;5051926;28;20119;-71
2023/08/16 10:05:30;;;;;;;0.40;0.40;;;24.40;99.90;;;;;;5042037;28;20044;-73
2023/08/16 10:08:00;;;;;;;0.47;0.47;;;24.60;99.90;;;;;;5061741;28;20091;-71
2023/08/16 10:10:27;;;;;;;0.38;0.38;;;24.50;99.90;;;;;;5061291;28;20403;-72
2023/08/16 10:12:54;;;;;;;0.40;0.40;;;24.50;99.90;;;;;;5054998;28;20047;-72
2023/08/16 10:15:20;;;;;;;0.28;0.28;;;24.50;99.90;;;;;;5056821;28;20412;-71
2023/08/16 10:17:50;;;;;;;0.40;0.40;;;24.60;99.90;;;;;;5064231;28;20072;-71
2023/08/16 10:20:27;;;;;;;0.68;0.68;;;24.60;99.90;;;;;;5034709;28;20036;-71
2023/08/16 10:23:02;;;;;;;0.93;0.93;;;24.60;99.90;;;;;;5056956;28;20041;-71
2023/08/16 10:25:36;;;;;;;0.60;0.60;;;24.60;99.90;;;;;;5048250;28;20044;-71
2023/08/16 10:28:03;;;;;;;0.73;0.73;;;24.70;99.90;;;;;;5036083;28;20037;-71
2023/08/16 10:30:31;;;;;;;0.50;0.50;;;24.80;99.90;;;;;;5067562;28;20067;-71
2023/08/16 10:33:06;;;;;;;0.30;0.30;;;25.00;99.90;;;;;;5046634;28;20344;-71
2023/08/16 10:35:33;;;;;;;0.40;0.40;;;25.30;99.90;;;;;;5050879;28;20064;-71
2023/08/16 10:37:59;;;;;;;0.30;0.30;;;25.40;99.90;;;;;;5041577;28;20037;-72
2023/08/16 10:40:25;;;;;;;0.57;0.57;;;25.50;99.90;;;;;;5051784;28;20040;-74
2023/08/16 10:42:54;;;;;;;0.50;0.50;;;25.30;99.90;;;;;;5043201;28;20052;-72
2023/08/16 10:45:27;;;;;;;0.40;0.40;;;25.30;99.90;;;;;;5043927;28;20047;-74
2023/08/16 10:47:53;;;;;;;0.52;0.52;;;25.40;99.90;;;;;;5050840;28;20047;-72
2023/08/16 10:50:19;;;;;;;0.50;0.50;;;25.40;99.90;;;;;;5035137;28;20419;-71
2023/08/16 10:52:45;;;;;;;0.60;0.60;;;25.40;99.90;;;;;;5048273;28;20045;-72
2023/08/16 10:55:14;;;;;;;0.65;0.65;;;25.40;99.90;;;;;;5044138;28;20045;-73
2023/08/16 10:57:50;;;;;;;0.52;0.52;;;25.30;99.90;;;;;;5049205;28;20041;-72
2023/08/16 11:00:16;;;;;;;0.40;0.40;;;25.20;99.90;;;;;;5041137;28;20037;-72
2023/08/16 11:02:42;;;;;;;0.52;0.52;;;25.20;99.90;;;;;;5038786;28;20054;-72
2023/08/16 11:05:18;;;;;;;0.63;0.63;;;25.10;99.90;;;;;;5051010;28;20511;-71
2023/08/16 11:07:44;;;;;;;0.55;0.55;;;25.30;99.90;;;;;;5033705;28;20033;-73
2023/08/16 11:10:10;;;;;;;0.35;0.35;;;25.40;99.90;;;;;;5052039;28;20070;-72
2023/08/16 11:12:35;;;;;;;0.57;0.57;;;25.50;99.90;;;;;;5049853;28;20520;-72
2023/08/16 11:15:02;;;;;;;0.73;0.73;;;25.70;99.90;;;;;;5051166;28;20109;-73
2023/08/16 11:17:28;;;;;;;0.30;0.30;;;25.80;99.90;;;;;;5050458;28;20458;-73
2023/08/16 11:19:55;;;;;;;1.20;0.85;;;25.90;99.90;;;;;;5043120;28;20043;-73
2023/08/16 11:22:22;;;;;;;0.40;0.40;;;25.90;99.90;;;;;;5027754;28;20028;-74
2023/08/16 11:24:49;;;;;;;0.60;0.60;;;25.80;99.90;;;;;;5034142;28;20051;-73
2023/08/16 11:27:23;;;;;;;0.70;0.70;;;25.80;99.90;;;;;;5039715;28;20033;-73
2023/08/16 11:29:50;;;;;;;5.35;1.35;;;25.70;99.90;;;;;;5061118;28;20040;-74
2023/08/16 11:32:28;;;;;;;0.40;0.40;;;25.80;99.90;;;;;;5050877;28;20546;-74
2023/08/16 11:34:54;;;;;;;0.30;0.30;;;25.90;99.90;;;;;;5064251;28;20094;-73
2023/08/16 11:37:19;;;;;;;0.73;0.73;;;25.80;99.90;;;;;;5038567;28;20037;-74
2023/08/16 11:39:45;;;;;;;0.30;0.30;;;25.80;99.90;;;;;;5029256;28;20044;-73
2023/08/16 11:42:11;;;;;;;0.22;0.22;;;25.80;99.90;;;;;;5048059;28;20542;-73
2023/08/16 11:44:38;;;;;;;0.30;0.30;;;25.80;99.90;;;;;;5028333;28;20492;-75
2023/08/16 11:47:08;;;;;;;;;;;25.80;99.90;;;;;;5047217;28;20040;-73
2023/08/16 11:49:36;;;;;;;0.40;0.40;;;25.70;99.90;;;;;;5029927;28;19959;-73
2023/08/16 11:52:02;;;;;;;1.65;0.63;;;25.80;99.90;;;;;;5025917;28;20064;-75
2023/08/16 11:54:28;;;;;;;0.50;0.50;;;25.80;99.90;;;;;;5033047;28;20044;-73
2023/08/16 11:56:53;;;;;;;1.13;0.50;;;25.90;99.90;;;;;;5048719;28;20040;-74
2023/08/16 11:59:30;;;;;;;0.20;0.20;;;26.10;99.90;;;;;;5042295;28;20089;-73
2023/08/16 12:01:55;;;;;;;0.38;0.38;;;26.20;99.90;;;;;;5025200;28;20041;-73
2023/08/16 12:04:23;;;;;;;0.50;0.50;;;26.30;99.90;;;;;;5046598;28;20407;-73
2023/08/16 12:06:49;;;;;;;0.20;0.20;;;26.30;99.90;;;;;;5028724;28;20381;-73
2023/08/16 12:09:15;;;;;;;0.80;0.80;;;26.20;99.90;;;;;;5049577;28;20088;-73
2023/08/16 12:11:41;;;;;;;0.30;0.30;;;26.00;99.90;;;;;;5047956;28;20040;-74
2023/08/16 12:14:07;;;;;;;0.40;0.40;;;26.10;99.90;;;;;;5047026;28;20048;-74
2023/08/16 12:16:33;;;;;;;0.45;0.45;;;26.30;99.90;;;;;;5046602;28;20040;-75
2023/08/16 12:18:59;;;;;;;0.35;0.35;;;26.30;99.90;;;;;;5033761;28;20454;-76
2023/08/16 12:21:25;;;;;;;0.35;0.35;;;26.30;99.90;;;;;;5046259;28;20040;-72
2023/08/16 12:23:51;;;;;;;0.40;0.40;;;26.30;99.90;;;;;;5045821;28;20037;-73
2023/08/16 12:26:17;;;;;;;0.30;0.30;;;26.50;99.90;;;;;;5040236;28;20063;-72
2023/08/16 12:28:43;;;;;;;0.40;0.40;;;26.50;99.90;;;;;;5030142;28;20136;-76
2023/08/16 12:31:10;;;;;;;0.50;0.50;;;26.20;99.90;;;;;;5030043;28;20120;-72
2023/08/16 12:33:36;;;;;;;0.30;0.30;;;26.10;99.90;;;;;;5027025;28;20033;-71
2023/08/16 12:36:02;;;;;;;0.68;0.68;;;25.90;99.90;;;;;;5049521;28;20090;-72
2023/08/16 12:38:28;;;;;;;0.82;0.82;;;25.80;99.90;;;;;;5043180;28;20041;-76
2023/08/16 12:40:53;;;;;;;0.40;0.40;;;25.80;99.90;;;;;;5044997;28;20492;-72
2023/08/16 12:43:19;;;;;;;0.30;0.30;;;25.70;99.90;;;;;;5042077;28;20139;-73
2023/08/16 12:45:45;;;;;;;0.77;0.77;;;25.60;99.90;;;;;;5038478;28;20068;-75